Time;durP1;ratioP1;P1;durP2;ratioP2;P2;SDS_P1;SDS_P2;PMS_P1;PMS_P2;Temp;Humidity;BMP_temperature;BMP_pressure;BME280_temperature;BME280_humidity;BME280_pressure;Samples;Min_cycle;Max_cycle;Signal;HPM_P1;HPM_P2
2022/02/23 00:01:15;;;;;;;10.52;2.42;;;5.40;99.90;;;;;;4997565;28;20129;-91
2022/02/23 00:03:43;;;;;;;12.88;2.80;;;5.40;99.90;;;;;;4997734;28;20045;-92
2022/02/23 00:06:12;;;;;;;13.93;2.53;;;5.50;99.90;;;;;;4997331;28;20034;-92
2022/02/23 00:08:38;;;;;;;14.55;2.53;;;5.50;99.90;;;;;;4997520;28;20088;-91
2022/02/23 00:11:03;;;;;;;13.85;3.22;;;5.50;99.90;;;;;;5000297;28;20034;-93
2022/02/23 00:13:29;;;;;;;18.30;3.40;;;5.50;99.90;;;;;;5001879;28;20365;-92
2022/02/23 00:15:55;;;;;;;16.10;2.92;;;5.60;99.90;;;;;;5003054;28;20056;-92
2022/02/23 00:18:22;;;;;;;18.23;4.38;;;5.50;99.90;;;;;;4999886;28;20041;-92
2022/02/23 00:20:48;;;;;;;16.08;2.50;;;5.50;99.90;;;;;;4997885;28;20034;-92
2022/02/23 00:23:14;;;;;;;12.32;2.55;;;5.50;99.90;;;;;;4997484;28;20042;-91
2022/02/23 00:25:41;;;;;;;18.17;3.28;;;5.50;99.90;;;;;;4997330;28;20044;-91
2022/02/23 00:28:07;;;;;;;13.05;2.33;;;5.50;99.90;;;;;;4997863;28;20057;-92
2022/02/23 00:30:33;;;;;;;14.52;3.28;;;5.50;99.90;;;;;;4998019;28;20034;-92
2022/02/23 00:32:58;;;;;;;20.80;4.65;;;5.50;99.90;;;;;;4997692;28;20491;-92
2022/02/23 00:35:24;;;;;;;21.40;3.10;;;5.40;99.90;;;;;;4997162;28;20026;-91
2022/02/23 00:37:50;;;;;;;21.48;3.40;;;5.50;99.90;;;;;;4997271;28;20041;-92
2022/02/23 00:40:16;;;;;;;19.15;3.95;;;5.40;99.90;;;;;;4997686;28;20026;-92
2022/02/23 00:42:41;;;;;;;16.30;2.92;;;5.40;99.90;;;;;;4998430;28;20038;-91
2022/02/23 00:45:08;;;;;;;20.48;3.83;;;5.40;99.90;;;;;;4998101;28;20076;-92
2022/02/23 00:47:33;;;;;;;20.85;3.05;;;5.40;99.90;;;;;;4997357;28;20037;-91
2022/02/23 00:49:59;;;;;;;25.63;3.78;;;5.40;99.90;;;;;;5005424;28;20034;-91
2022/02/23 00:52:25;;;;;;;21.13;4.03;;;5.30;99.90;;;;;;5000003;28;20025;-91
2022/02/23 00:54:51;;;;;;;26.27;4.55;;;5.30;99.90;;;;;;4998557;28;20030;-91
2022/02/23 00:57:16;;;;;;;22.38;4.38;;;5.30;99.90;;;;;;5001021;28;20048;-90
2022/02/23 00:59:44;;;;;;;22.63;3.97;;;5.30;99.90;;;;;;5009339;28;20098;-91
2022/02/23 01:02:11;;;;;;;24.33;3.30;;;5.20;99.90;;;;;;5001155;28;20045;-94
2022/02/23 01:04:39;;;;;;;15.35;2.78;;;5.20;99.90;;;;;;5009703;28;20034;-92
2022/02/23 01:07:05;;;;;;;17.35;3.15;;;5.20;99.90;;;;;;4995471;28;20129;-92
2022/02/23 01:09:31;;;;;;;18.75;3.50;;;5.10;99.90;;;;;;4996556;28;20065;-91
2022/02/23 01:11:57;;;;;;;19.85;3.83;;;5.10;99.90;;;;;;4994706;28;20112;-92
2022/02/23 01:14:22;;;;;;;17.75;3.22;;;5.00;99.90;;;;;;4994168;28;20502;-90
2022/02/23 01:16:48;;;;;;;20.90;3.75;;;5.00;99.90;;;;;;4993936;28;20493;-91
2022/02/23 01:19:16;;;;;;;18.63;2.90;;;5.00;99.90;;;;;;4993765;28;20053;-90
2022/02/23 01:21:42;;;;;;;18.77;2.90;;;5.00;99.90;;;;;;4993722;28;20022;-91
2022/02/23 01:24:08;;;;;;;21.00;3.50;;;4.90;99.90;;;;;;4994231;28;20373;-91
2022/02/23 01:26:33;;;;;;;14.95;2.60;;;5.00;99.90;;;;;;4997288;28;20122;-92
2022/02/23 01:28:59;;;;;;;16.92;3.30;;;4.90;99.90;;;;;;4997053;28;20030;-91
2022/02/23 01:31:25;;;;;;;21.63;2.97;;;4.90;99.90;;;;;;4997097;28;20042;-91
2022/02/23 01:33:51;;;;;;;15.93;3.08;;;4.90;99.90;;;;;;4997107;28;20023;-92
2022/02/23 01:36:19;;;;;;;15.77;2.60;;;4.80;99.90;;;;;;4997266;28;20030;-93
2022/02/23 01:38:45;;;;;;;18.77;3.10;;;4.90;99.90;;;;;;4996951;28;20092;-93
2022/02/23 01:41:11;;;;;;;18.48;3.45;;;4.80;99.90;;;;;;4996952;28;20042;-92
2022/02/23 01:43:36;;;;;;;16.48;3.13;;;4.90;99.90;;;;;;4996835;28;20090;-91
2022/02/23 01:46:03;;;;;;;21.08;2.90;;;4.80;99.90;;;;;;4996721;28;20046;-91
2022/02/23 01:48:28;;;;;;;18.08;3.30;;;4.80;99.90;;;;;;4996710;28;20472;-91
2022/02/23 01:50:54;;;;;;;17.00;3.58;;;4.80;99.90;;;;;;4996749;28;20049;-91
2022/02/23 01:53:20;;;;;;;19.25;3.53;;;4.80;99.90;;;;;;4996377;28;20030;-91
2022/02/23 01:55:46;;;;;;;14.55;3.22;;;4.80;99.90;;;;;;4996248;28;20026;-92
2022/02/23 01:58:12;;;;;;;20.67;2.85;;;4.70;99.90;;;;;;4996556;28;20030;-92
2022/02/23 02:00:38;;;;;;;26.65;4.30;;;4.70;99.90;;;;;;4996827;28;20037;-92
2022/02/23 02:03:04;;;;;;;19.00;3.55;;;4.70;99.90;;;;;;4996308;28;20060;-92
2022/02/23 02:05:30;;;;;;;14.95;3.13;;;4.60;99.90;;;;;;4996236;28;20043;-93
2022/02/23 02:07:56;;;;;;;23.02;4.20;;;4.70;99.90;;;;;;4996540;28;20050;-93
2022/02/23 02:10:21;;;;;;;18.65;3.17;;;4.60;99.90;;;;;;4996427;28;20026;-93
2022/02/23 02:12:47;;;;;;;19.83;4.03;;;4.60;99.90;;;;;;4995962;28;20053;-92
2022/02/23 02:15:13;;;;;;;15.65;2.80;;;4.60;99.90;;;;;;4996179;28;20066;-91
2022/02/23 02:17:41;;;;;;;19.27;2.90;;;4.60;99.90;;;;;;4996594;28;20033;-93
2022/02/23 02:20:08;;;;;;;23.75;3.63;;;4.60;99.90;;;;;;4996088;28;20045;-93
2022/02/23 02:22:34;;;;;;;14.77;3.00;;;4.50;99.90;;;;;;4996250;28;20096;-92
2022/02/23 02:24:59;;;;;;;17.55;2.53;;;4.50;99.90;;;;;;4995704;28;20440;-91
2022/02/23 02:27:26;;;;;;;16.65;3.13;;;4.50;99.90;;;;;;4995660;28;20044;-92
2022/02/23 02:29:52;;;;;;;17.65;3.42;;;4.50;99.90;;;;;;4996270;28;20037;-92
2022/02/23 02:32:17;;;;;;;20.48;3.75;;;4.50;99.90;;;;;;4996238;28;20042;-92
2022/02/23 02:34:45;;;;;;;12.73;2.35;;;4.50;99.90;;;;;;4996233;28;20035;-92
2022/02/23 02:37:12;;;;;;;15.55;3.28;;;4.50;99.90;;;;;;4995819;28;20038;-93
2022/02/23 02:39:38;;;;;;;19.70;3.58;;;4.40;99.90;;;;;;4997481;28;20081;-92
2022/02/23 02:42:04;;;;;;;16.30;3.47;;;4.40;99.90;;;;;;4996886;28;20034;-92
2022/02/23 02:44:30;;;;;;;17.38;2.65;;;4.40;99.90;;;;;;4996592;28;20026;-93
2022/02/23 02:46:56;;;;;;;19.90;3.88;;;4.40;99.90;;;;;;4996078;28;20038;-92
2022/02/23 02:49:22;;;;;;;14.38;2.75;;;4.40;99.90;;;;;;4995949;28;20097;-93
2022/02/23 02:51:48;;;;;;;14.27;2.78;;;4.40;99.90;;;;;;4995550;28;20137;-92
2022/02/23 02:54:14;;;;;;;21.67;4.18;;;4.40;99.90;;;;;;4995829;28;20037;-92
2022/02/23 02:56:40;;;;;;;20.73;2.80;;;4.40;99.90;;;;;;4996044;28;20026;-92
2022/02/23 02:59:07;;;;;;;18.85;3.40;;;4.40;99.90;;;;;;4995451;28;20067;-91
2022/02/23 03:01:33;;;;;;;24.55;3.25;;;4.40;99.90;;;;;;4995948;28;20038;-93
2022/02/23 03:04:00;;;;;;;15.93;3.05;;;4.30;99.90;;;;;;4996063;28;20053;-92
2022/02/23 03:06:26;;;;;;;11.18;2.60;;;4.40;99.90;;;;;;4997358;28;20049;-90
2022/02/23 03:08:53;;;;;;;26.80;4.43;;;4.30;99.90;;;;;;4998675;28;20487;-92
2022/02/23 03:11:19;;;;;;;11.70;2.72;;;4.30;99.90;;;;;;4998886;28;20030;-91
2022/02/23 03:13:45;;;;;;;17.88;3.20;;;4.30;99.90;;;;;;4998821;28;20029;-90
2022/02/23 03:16:12;;;;;;;16.15;2.78;;;4.30;99.90;;;;;;4998709;28;20168;-91
2022/02/23 03:18:41;;;;;;;19.30;2.92;;;4.20;99.90;;;;;;4998388;28;20113;-91
2022/02/23 03:21:07;;;;;;;16.23;2.90;;;4.20;99.90;;;;;;4998235;28;20065;-91
2022/02/23 03:23:35;;;;;;;17.30;3.72;;;4.20;99.90;;;;;;4998270;28;20026;-92
2022/02/23 03:26:01;;;;;;;14.38;2.63;;;4.20;99.90;;;;;;4999359;28;20041;-92
2022/02/23 03:28:26;;;;;;;16.63;3.05;;;4.20;99.90;;;;;;4997993;28;20033;-91
2022/02/23 03:30:53;;;;;;;13.43;3.00;;;4.20;99.90;;;;;;4997786;28;20036;-92
2022/02/23 03:33:19;;;;;;;16.35;2.42;;;4.20;99.90;;;;;;4997973;28;20030;-91
2022/02/23 03:35:48;;;;;;;11.40;2.28;;;4.10;99.90;;;;;;5006504;28;20029;-92
2022/02/23 03:38:14;;;;;;;15.38;2.38;;;4.10;99.90;;;;;;5013426;28;20034;-91
2022/02/23 03:40:42;;;;;;;16.80;3.00;;;4.10;99.90;;;;;;5014353;28;20030;-93
2022/02/23 03:43:08;;;;;;;11.32;2.38;;;4.10;99.90;;;;;;4998223;28;20488;-91
2022/02/23 03:45:34;;;;;;;18.30;3.28;;;4.10;99.90;;;;;;5013967;28;20041;-91
2022/02/23 03:48:00;;;;;;;14.63;3.22;;;4.00;99.90;;;;;;5013990;28;20037;-91
2022/02/23 03:50:29;;;;;;;16.23;2.83;;;4.10;99.90;;;;;;5014344;28;20476;-91
2022/02/23 03:52:55;;;;;;;14.48;2.90;;;4.10;99.90;;;;;;5014767;28;20041;-92
2022/02/23 03:55:21;;;;;;;14.65;2.70;;;4.00;99.90;;;;;;5015030;28;20041;-92
2022/02/23 03:57:46;;;;;;;16.92;2.58;;;4.00;99.90;;;;;;5015655;28;20022;-90
2022/02/23 04:00:14;;;;;;;15.68;3.28;;;4.10;99.90;;;;;;5015785;28;20121;-92
2022/02/23 04:02:40;;;;;;;19.40;3.60;;;4.00;99.90;;;;;;5016975;28;20033;-92
2022/02/23 04:05:10;;;;;;;13.45;2.97;;;4.00;99.90;;;;;;5015685;28;20034;-92
2022/02/23 04:07:39;;;;;;;11.15;2.38;;;4.00;99.90;;;;;;5020052;28;20062;-92
2022/02/23 04:10:09;;;;;;;11.75;2.97;;;3.90;99.90;;;;;;5025688;28;20034;-89
2022/02/23 04:12:35;;;;;;;11.93;2.95;;;3.90;99.90;;;;;;5031816;28;20030;-92
2022/02/23 04:15:03;;;;;;;15.20;3.20;;;3.90;99.90;;;;;;5031886;28;20045;-91
2022/02/23 04:17:39;;;;;;;;;;;;;;;;;;;;;
2022/02/23 04:20:17;;;;;;;16.98;2.80;;;3.80;99.90;;;;;;5030056;28;20073;-90
2022/02/23 04:22:44;;;;;;;13.77;3.53;;;3.70;99.90;;;;;;5030779;28;20030;-91
2022/02/23 04:25:11;;;;;;;10.95;2.60;;;3.70;99.90;;;;;;5029406;28;20042;-90
2022/02/23 04:27:37;;;;;;;15.52;3.13;;;3.70;99.90;;;;;;5028712;28;20041;-90
2022/02/23 04:30:10;;;;;;;14.93;3.22;;;3.70;99.90;;;;;;5019222;28;20066;-92
2022/02/23 04:32:41;;;;;;;16.98;4.55;;;3.60;99.90;;;;;;5015065;28;20022;-92
2022/02/23 04:35:08;;;;;;;17.15;3.85;;;3.60;99.90;;;;;;5015384;28;20026;-91
2022/02/23 04:37:43;;;;;;;20.10;4.47;;;3.60;99.90;;;;;;5015214;28;20069;-90
2022/02/23 04:40:12;;;;;;;18.10;3.70;;;3.60;99.90;;;;;;5014721;28;20062;-91
2022/02/23 04:42:38;;;;;;;13.23;4.30;;;3.50;99.90;;;;;;5014630;28;20034;-92
2022/02/23 04:45:05;;;;;;;15.20;4.35;;;3.50;99.90;;;;;;5020210;28;20044;-91
2022/02/23 04:47:32;;;;;;;19.38;4.03;;;3.50;99.90;;;;;;5001260;28;20388;-89
2022/02/23 04:49:58;;;;;;;11.10;3.35;;;3.50;99.90;;;;;;5003081;28;20034;-91
2022/02/23 04:52:27;;;;;;;16.15;2.90;;;3.50;99.90;;;;;;5019398;28;20046;-91
2022/02/23 04:54:53;;;;;;;17.92;3.97;;;3.40;99.90;;;;;;5015802;28;20112;-91
2022/02/23 04:57:19;;;;;;;11.30;3.45;;;3.40;99.90;;;;;;5014146;28;20030;-90
2022/02/23 04:59:45;;;;;;;11.00;3.05;;;3.40;99.90;;;;;;5015882;28;20098;-90
2022/02/23 05:02:11;;;;;;;9.35;2.78;;;3.40;99.90;;;;;;5017983;28;20029;-91
2022/02/23 05:04:37;;;;;;;13.60;2.88;;;3.30;99.90;;;;;;5018028;28;20026;-91
2022/02/23 05:07:03;;;;;;;12.63;3.47;;;3.40;99.90;;;;;;5017549;28;20091;-91
2022/02/23 05:09:29;;;;;;;13.02;4.03;;;3.30;99.90;;;;;;5017557;28;20026;-92
2022/02/23 05:11:55;;;;;;;12.07;3.20;;;3.30;99.90;;;;;;5017139;28;20634;-90
2022/02/23 05:14:21;;;;;;;15.68;4.55;;;3.30;99.90;;;;;;5017192;28;20534;-91
2022/02/23 05:16:47;;;;;;;13.48;2.95;;;3.30;99.90;;;;;;5017408;28;20045;-92
2022/02/23 05:19:13;;;;;;;13.73;3.30;;;3.30;99.90;;;;;;5017137;28;20049;-92
2022/02/23 05:21:38;;;;;;;9.63;3.03;;;3.30;99.90;;;;;;5017537;28;20495;-91
2022/02/23 05:24:04;;;;;;;13.73;3.25;;;3.20;99.90;;;;;;5016674;28;20030;-92
2022/02/23 05:26:30;;;;;;;9.00;3.00;;;3.10;99.90;;;;;;5017753;28;20136;-90
2022/02/23 05:28:56;;;;;;;12.32;2.78;;;3.20;99.90;;;;;;5020627;28;20068;-91
2022/02/23 05:31:22;;;;;;;10.10;2.50;;;3.10;99.90;;;;;;5023929;28;20060;-91
2022/02/23 05:33:47;;;;;;;10.13;3.58;;;3.10;99.90;;;;;;5019672;28;20085;-92
2022/02/23 05:36:14;;;;;;;17.63;3.63;;;3.10;99.90;;;;;;5028981;28;20030;-92
2022/02/23 05:38:39;;;;;;;10.10;3.38;;;3.10;99.90;;;;;;5031611;28;20034;-92
2022/02/23 05:41:06;;;;;;;10.82;3.78;;;3.10;99.90;;;;;;5028009;28;20037;-92
2022/02/23 05:43:31;;;;;;;14.23;3.65;;;3.10;99.90;;;;;;5016191;28;20049;-91
2022/02/23 05:45:58;;;;;;;14.77;3.85;;;3.10;99.90;;;;;;5016467;28;20492;-91
2022/02/23 05:48:23;;;;;;;12.85;3.83;;;3.10;99.90;;;;;;5016134;28;20116;-91
2022/02/23 05:50:50;;;;;;;12.48;2.90;;;3.10;99.90;;;;;;5015789;28;20435;-90
2022/02/23 05:53:15;;;;;;;9.55;2.58;;;3.10;99.90;;;;;;5015642;28;20506;-92
2022/02/23 05:55:41;;;;;;;10.57;2.95;;;3.00;99.90;;;;;;5016469;28;20136;-92
2022/02/23 05:58:07;;;;;;;13.15;3.35;;;3.00;99.90;;;;;;5015995;28;20083;-90
2022/02/23 06:00:33;;;;;;;5.93;2.42;;;3.00;99.90;;;;;;5016392;28;20030;-91
2022/02/23 06:02:58;;;;;;;7.28;2.40;;;2.90;99.90;;;;;;5016455;28;20022;-93
2022/02/23 06:05:49;;;;;;;12.18;2.70;;;2.90;99.90;;;;;;5017376;28;20050;-93
2022/02/23 06:28:53;;;;;;;10.32;2.83;;;2.80;99.90;;;;;;5039404;28;20053;-95
2022/02/23 06:31:19;;;;;;;10.98;3.47;;;2.80;99.90;;;;;;5020195;28;20100;-92
2022/02/23 06:33:46;;;;;;;11.93;2.53;;;2.80;99.90;;;;;;5017908;28;20159;-92
2022/02/23 06:36:13;;;;;;;7.13;2.72;;;2.80;99.90;;;;;;5018579;28;20030;-91
2022/02/23 06:38:42;;;;;;;10.05;2.78;;;2.80;99.90;;;;;;5017443;28;20034;-92
2022/02/23 06:41:13;;;;;;;13.65;2.60;;;2.80;99.90;;;;;;5018681;28;20048;-94
2022/02/23 06:43:39;;;;;;;9.90;2.67;;;2.80;99.90;;;;;;5019302;28;20036;-94
2022/02/23 06:46:05;;;;;;;12.27;3.03;;;2.90;99.90;;;;;;5018261;28;20499;-93
2022/02/23 06:48:32;;;;;;;6.00;2.50;;;2.90;99.90;;;;;;5018452;28;20037;-92
2022/02/23 06:50:59;;;;;;;10.73;2.83;;;2.80;99.90;;;;;;5002375;28;20069;-94
2022/02/23 06:53:26;;;;;;;8.45;2.60;;;2.80;99.90;;;;;;5021258;28;20087;-93
2022/02/23 06:55:52;;;;;;;8.45;2.55;;;2.90;99.90;;;;;;5007470;28;20044;-92
2022/02/23 06:58:29;;;;;;;5.95;2.40;;;2.80;99.90;;;;;;5027783;28;20061;-94
2022/02/23 07:00:56;;;;;;;10.82;2.97;;;2.80;99.90;;;;;;5022606;28;20037;-90
2022/02/23 07:03:24;;;;;;;7.47;2.72;;;2.80;99.90;;;;;;5030437;28;20022;-91
2022/02/23 07:05:53;;;;;;;8.52;2.58;;;2.90;99.90;;;;;;5024390;28;20045;-93
2022/02/23 07:08:21;;;;;;;5.72;2.10;;;2.80;99.90;;;;;;5021182;28;20046;-95
2022/02/23 07:10:47;;;;;;;7.15;2.45;;;2.80;99.90;;;;;;5022317;28;20030;-94
2022/02/23 07:13:17;;;;;;;7.10;2.33;;;2.80;99.90;;;;;;5022293;28;20032;-94
2022/02/23 07:15:45;;;;;;;7.95;2.10;;;2.80;99.90;;;;;;5011078;28;20052;-94
2022/02/23 07:18:13;;;;;;;7.32;2.17;;;2.70;99.90;;;;;;5028302;28;20106;-94
2022/02/23 07:20:39;;;;;;;9.55;2.33;;;2.80;99.90;;;;;;5026364;28;20033;-92
2022/02/23 07:23:04;;;;;;;9.13;2.63;;;2.80;99.90;;;;;;5020707;28;20127;-92
2022/02/23 07:25:33;;;;;;;6.72;2.20;;;2.90;99.90;;;;;;5018972;28;20038;-94
2022/02/23 07:27:58;;;;;;;13.23;2.60;;;2.90;99.90;;;;;;5024213;28;20053;-91
2022/02/23 07:30:25;;;;;;;9.75;2.40;;;2.90;99.90;;;;;;5024001;28;20032;-95
2022/02/23 07:32:57;;;;;;;8.98;2.58;;;3.00;99.90;;;;;;5026059;28;20037;-95
2022/02/23 07:35:23;;;;;;;9.60;2.47;;;3.10;99.90;;;;;;5026252;28;20120;-96
2022/02/23 07:38:04;;;;;;;13.02;3.53;;;3.10;99.90;;;;;;5025720;28;20061;-96
2022/02/23 07:40:30;;;;;;;7.60;2.67;;;3.20;99.90;;;;;;5025874;28;20086;-95
2022/02/23 07:42:56;;;;;;;10.57;3.00;;;3.20;99.90;;;;;;5027302;28;20105;-96
2022/02/23 07:45:22;;;;;;;14.55;4.03;;;3.30;99.90;;;;;;5028977;28;20573;-95
2022/02/23 07:47:50;;;;;;;10.57;2.83;;;3.30;99.90;;;;;;5027537;28;20037;-94
2022/02/23 07:50:16;;;;;;;13.25;3.20;;;3.40;99.90;;;;;;5026606;28;20117;-93
2022/02/23 07:52:42;;;;;;;13.80;3.30;;;3.40;99.90;;;;;;5030914;28;20036;-93
2022/02/23 07:55:09;;;;;;;11.10;2.78;;;3.50;99.90;;;;;;5027022;28;20048;-95
2022/02/23 07:57:35;;;;;;;10.98;3.72;;;3.60;99.90;;;;;;5028277;28;20120;-94
2022/02/23 08:00:41;;;;;;;10.05;3.38;;;3.60;99.90;;;;;;5026754;28;20031;-92
2022/02/23 08:03:09;;;;;;;10.55;3.03;;;3.70;99.90;;;;;;5016660;28;20038;-94
2022/02/23 08:05:35;;;;;;;10.77;3.33;;;3.80;99.90;;;;;;5024685;28;20530;-96
2022/02/23 08:08:03;;;;;;;13.32;3.53;;;3.90;99.90;;;;;;5018493;28;20064;-95
2022/02/23 08:10:29;;;;;;;11.30;3.10;;;4.00;99.90;;;;;;5019383;28;20538;-95
2022/02/23 08:12:58;;;;;;;10.73;3.85;;;4.20;99.90;;;;;;5024903;28;20124;-94
2022/02/23 08:21:05;;;;;;;18.98;4.65;;;4.40;99.90;;;;;;5039355;28;20099;-94
2022/02/23 08:23:31;;;;;;;15.05;4.97;;;4.40;99.90;;;;;;5017916;28;20026;-95
2022/02/23 08:26:05;;;;;;;15.40;4.03;;;4.50;99.90;;;;;;5020050;28;20037;-94
2022/02/23 08:28:30;;;;;;;15.85;4.75;;;4.60;99.90;;;;;;5018673;28;20140;-94
2022/02/23 08:30:56;;;;;;;14.95;5.25;;;4.60;99.90;;;;;;5017305;28;20079;-93
2022/02/23 08:33:22;;;;;;;17.73;5.20;;;4.70;99.90;;;;;;5017823;28;20037;-94
2022/02/23 08:35:47;;;;;;;15.20;4.20;;;4.80;99.90;;;;;;5021135;28;20037;-93
2022/02/23 08:38:14;;;;;;;17.08;4.57;;;4.90;99.90;;;;;;5021803;28;20124;-94
2022/02/23 08:40:42;;;;;;;14.73;4.63;;;5.00;99.90;;;;;;5023044;28;20112;-91
2022/02/23 08:43:07;;;;;;;19.48;4.55;;;5.00;99.90;;;;;;5021981;28;20461;-91
2022/02/23 08:45:33;;;;;;;21.45;4.82;;;5.20;99.90;;;;;;5021842;28;20521;-93
2022/02/23 08:48:03;;;;;;;22.77;4.95;;;5.20;99.90;;;;;;5022021;28;20065;-90
2022/02/23 08:50:30;;;;;;;17.58;5.30;;;5.30;99.90;;;;;;5021831;28;20040;-92
2022/02/23 08:52:56;;;;;;;17.33;5.18;;;5.40;99.90;;;;;;5021466;28;20037;-93
2022/02/23 08:55:23;;;;;;;17.38;5.30;;;5.50;99.90;;;;;;5021089;28;20033;-93
2022/02/23 08:57:50;;;;;;;21.80;6.38;;;5.60;99.90;;;;;;5021949;28;20025;-93
2022/02/23 09:00:16;;;;;;;15.88;5.28;;;5.60;99.90;;;;;;5022121;28;20021;-93
2022/02/23 09:02:41;;;;;;;11.18;4.93;;;5.70;99.90;;;;;;5020225;28;20033;-92
2022/02/23 09:05:07;;;;;;;12.85;4.82;;;5.80;99.90;;;;;;5020927;28;20574;-91
2022/02/23 09:07:33;;;;;;;13.75;5.50;;;5.80;99.90;;;;;;5035313;28;20056;-90
2022/02/23 09:09:58;;;;;;;14.77;5.88;;;5.90;99.90;;;;;;5016951;28;20116;-90
2022/02/23 09:12:24;;;;;;;14.48;5.82;;;6.00;99.90;;;;;;5019261;28;20129;-87
2022/02/23 09:14:52;;;;;;;18.60;6.68;;;6.10;99.90;;;;;;5019520;28;20021;-89
2022/02/23 09:17:18;;;;;;;18.95;6.43;;;6.20;99.90;;;;;;5020185;28;20029;-90
2022/02/23 09:19:43;;;;;;;19.10;7.30;;;6.30;99.90;;;;;;5021117;28;20033;-91
2022/02/23 09:22:09;;;;;;;19.77;7.65;;;6.40;99.90;;;;;;5019721;28;20034;-89
2022/02/23 09:24:35;;;;;;;19.67;8.00;;;6.40;99.90;;;;;;5019442;28;20074;-89
2022/02/23 09:27:03;;;;;;;18.88;8.07;;;6.50;99.90;;;;;;5015038;28;20100;-89
2022/02/23 09:29:35;;;;;;;20.65;7.68;;;6.60;99.90;;;;;;5016218;28;20049;-90
2022/02/23 09:32:01;;;;;;;20.77;8.23;;;6.80;99.90;;;;;;5016325;28;20486;-90
2022/02/23 09:34:27;;;;;;;18.80;7.80;;;8.10;99.90;;;;;;5016893;28;20161;-90
2022/02/23 09:36:52;;;;;;;16.67;6.72;;;9.70;99.90;;;;;;5015509;28;20040;-91
2022/02/23 09:39:21;;;;;;;19.45;5.95;;;11.10;99.90;;;;;;5016760;28;20037;-90
2022/02/23 09:41:47;;;;;;;16.33;4.90;;;12.20;99.90;;;;;;5013904;28;20033;-90
2022/02/23 09:44:17;;;;;;;15.38;4.55;;;13.20;99.90;;;;;;5016425;28;20038;-89
2022/02/23 09:46:44;;;;;;;17.83;4.90;;;14.10;99.90;;;;;;5008154;28;20402;-90
2022/02/23 09:49:11;;;;;;;15.07;5.10;;;14.80;99.90;;;;;;5019449;28;20034;-90
2022/02/23 09:51:37;;;;;;;13.32;4.82;;;15.20;99.90;;;;;;5018965;28;20040;-91
2022/02/23 09:54:02;;;;;;;15.40;4.68;;;15.30;99.90;;;;;;5023459;28;20034;-87
2022/02/23 09:56:28;;;;;;;12.05;4.65;;;15.70;99.90;;;;;;5025229;28;20041;-87
2022/02/23 09:58:55;;;;;;;11.88;4.47;;;16.10;99.90;;;;;;5020480;28;20030;-90
2022/02/23 10:01:27;;;;;;;12.88;4.97;;;16.30;99.90;;;;;;5034235;28;20041;-89
2022/02/23 10:03:54;;;;;;;15.32;5.82;;;16.30;99.90;;;;;;5021979;28;20472;-90
2022/02/23 10:06:20;;;;;;;18.20;6.00;;;16.20;99.90;;;;;;5022766;28;20042;-90
2022/02/23 10:09:00;;;;;;;15.80;6.40;;;16.10;99.90;;;;;;5006010;28;20030;-88
2022/02/23 10:11:28;;;;;;;13.25;5.70;;;16.20;99.90;;;;;;4999140;28;20106;-89
2022/02/23 10:13:54;;;;;;;12.70;5.47;;;16.30;99.90;;;;;;5017459;28;20117;-90
2022/02/23 10:16:24;;;;;;;11.90;5.60;;;16.60;99.90;;;;;;5016562;28;20065;-88
2022/02/23 10:18:50;;;;;;;12.50;5.93;;;16.80;99.90;;;;;;5015990;28;20117;-89
2022/02/23 10:21:19;;;;;;;13.43;6.38;;;16.80;99.90;;;;;;5015764;28;20471;-89
2022/02/23 10:23:48;;;;;;;18.92;6.65;;;16.90;99.90;;;;;;5019028;28;20022;-88
2022/02/23 10:26:15;;;;;;;18.77;6.38;;;16.90;99.90;;;;;;5018917;28;20061;-89
2022/02/23 10:28:41;;;;;;;13.52;4.90;;;16.90;99.90;;;;;;5016084;28;20038;-90
2022/02/23 10:31:09;;;;;;;14.38;6.00;;;16.90;99.90;;;;;;5016765;28;20037;-90
2022/02/23 10:33:39;;;;;;;13.93;5.80;;;17.00;99.90;;;;;;5014310;28;20156;-89
2022/02/23 10:36:06;;;;;;;17.70;5.80;;;17.00;99.90;;;;;;5013414;28;20029;-88
2022/02/23 10:38:39;;;;;;;21.65;6.15;;;17.00;99.90;;;;;;5013118;28;20048;-88
2022/02/23 10:41:06;;;;;;;16.05;5.13;;;17.20;99.90;;;;;;5000759;28;20030;-90
2022/02/23 10:43:36;;;;;;;13.95;5.10;;;17.40;99.90;;;;;;5013762;28;20038;-89
2022/02/23 10:46:08;;;;;;;15.05;5.15;;;17.60;99.90;;;;;;5014003;28;20038;-89
2022/02/23 10:48:50;;;;;;;16.10;5.75;;;17.80;99.90;;;;;;5023202;28;20045;-88
2022/02/23 10:51:22;;;;;;;13.40;4.40;;;17.70;99.90;;;;;;5003257;28;20128;-88
2022/02/23 10:53:50;;;;;;;13.05;4.28;;;17.50;99.90;;;;;;5017258;28;20141;-90
2022/02/23 10:56:27;;;;;;;11.38;4.13;;;17.70;99.90;;;;;;5020686;28;20034;-89
2022/02/23 10:59:06;;;;;;;10.63;3.95;;;18.00;99.90;;;;;;5030506;28;20022;-88
2022/02/23 11:01:33;;;;;;;14.27;3.90;;;18.10;99.90;;;;;;5008454;28;20040;-91
2022/02/23 11:03:59;;;;;;;9.07;3.45;;;18.00;99.90;;;;;;5017963;28;20022;-89
2022/02/23 11:06:26;;;;;;;14.75;3.88;;;18.00;99.90;;;;;;5023895;28;20072;-88
2022/02/23 11:08:52;;;;;;;14.38;4.15;;;18.10;99.90;;;;;;5024787;28;20048;-88
2022/02/23 11:11:23;;;;;;;12.18;3.55;;;18.10;99.90;;;;;;5024231;28;20034;-89
2022/02/23 11:13:49;;;;;;;9.02;3.40;;;18.40;99.90;;;;;;5025556;28;20030;-89
2022/02/23 11:16:17;;;;;;;9.95;2.92;;;18.20;99.90;;;;;;5003770;28;20033;-93
2022/02/23 11:18:45;;;;;;;9.57;2.60;;;17.80;99.90;;;;;;5014471;28;20065;-94
2022/02/23 11:21:14;;;;;;;11.00;3.47;;;17.70;99.90;;;;;;5014554;28;20092;-95
2022/02/23 11:23:42;;;;;;;8.23;2.58;;;17.90;99.90;;;;;;5013675;28;20038;-91
2022/02/23 11:26:12;;;;;;;10.20;3.15;;;18.00;99.90;;;;;;5013567;28;20042;-89
2022/02/23 11:29:12;;;;;;;10.43;3.15;;;18.10;99.90;;;;;;5018575;28;20044;-91
2022/02/23 11:31:38;;;;;;;9.10;2.78;;;18.20;99.90;;;;;;5001411;28;20042;-92
2022/02/23 11:34:09;;;;;;;7.88;2.60;;;18.50;99.90;;;;;;5013778;28;20048;-88
2022/02/23 11:36:44;;;;;;;11.20;2.92;;;19.20;99.90;;;;;;5014766;28;20084;-89
2022/02/23 11:39:19;;;;;;;11.63;2.92;;;19.70;99.90;;;;;;5014334;28;20068;-90
2022/02/23 11:41:48;;;;;;;12.27;3.38;;;19.80;99.90;;;;;;5014448;28;20395;-89
2022/02/23 11:44:16;;;;;;;9.10;2.60;;;19.40;99.90;;;;;;5022072;28;20080;-88
2022/02/23 11:46:54;;;;;;;11.40;3.78;;;19.20;99.90;;;;;;5026153;28;20053;-87
2022/02/23 11:49:28;;;;;;;12.82;3.20;;;19.10;99.90;;;;;;5025445;28;20045;-89
2022/02/23 11:52:10;;;;;;;11.48;3.38;;;19.00;99.90;;;;;;5022649;28;20049;-89
2022/02/23 11:54:49;;;;;;;10.38;2.58;;;19.30;99.90;;;;;;5021210;28;20045;-89
2022/02/23 11:57:36;;;;;;;8.95;2.85;;;19.40;99.90;;;;;;5022074;28;20480;-86
2022/02/23 12:00:03;;;;;;;8.98;2.72;;;19.70;99.90;;;;;;5014765;28;20034;-88
2022/02/23 12:02:30;;;;;;;12.88;3.40;;;19.60;99.90;;;;;;5020416;28;20045;-89
2022/02/23 12:04:56;;;;;;;10.93;2.70;;;19.70;99.90;;;;;;5017536;28;20030;-90
2022/02/23 12:07:22;;;;;;;11.77;2.65;;;19.40;99.20;;;;;;5015963;28;20048;-90
2022/02/23 12:10:07;;;;;;;9.10;2.35;;;19.20;99.90;;;;;;5018836;28;20041;-90
2022/02/23 12:12:40;;;;;;;9.93;2.58;;;19.50;99.90;;;;;;5016366;28;20128;-88
2022/02/23 12:15:07;;;;;;;9.18;2.30;;;19.70;99.90;;;;;;5017320;28;20034;-89
2022/02/23 12:17:54;;;;;;;8.20;2.55;;;19.80;99.90;;;;;;5016530;28;20044;-90
2022/02/23 12:20:43;;;;;;;7.65;2.47;;;19.90;99.90;;;;;;5015083;28;20034;-88
2022/02/23 12:23:18;;;;;;;10.25;3.00;;;19.80;99.70;;;;;;5006316;28;20030;-90
2022/02/23 12:26:14;;;;;;;11.18;3.08;;;19.70;99.40;;;;;;5013105;28;20050;-87
2022/02/23 12:28:41;;;;;;;10.93;2.70;;;19.60;99.70;;;;;;5013867;28;20038;-88
2022/02/23 12:31:15;;;;;;;8.43;2.53;;;19.50;99.80;;;;;;5014823;28;20041;-89
2022/02/23 12:33:42;;;;;;;8.85;2.25;;;19.60;99.90;;;;;;5029262;28;20088;-90
2022/02/23 12:36:23;;;;;;;7.30;2.03;;;19.80;99.90;;;;;;5014096;28;20038;-87
2022/02/23 12:38:50;;;;;;;6.93;2.30;;;20.20;99.90;;;;;;5014854;28;20026;-90
2022/02/23 12:41:24;;;;;;;10.02;2.63;;;20.60;99.90;;;;;;5015415;28;20038;-90
2022/02/23 12:44:02;;;;;;;8.05;1.83;;;21.00;99.10;;;;;;5012403;28;20120;-91
2022/02/23 12:46:32;;;;;;;7.20;2.28;;;20.60;99.50;;;;;;5013570;28;20053;-88
2022/02/23 12:48:58;;;;;;;9.75;2.05;;;20.40;99.90;;;;;;5012367;28;20188;-88
2022/02/23 12:51:25;;;;;;;7.72;2.55;;;20.20;97.70;;;;;;5012860;28;20038;-89
2022/02/23 12:53:57;;;;;;;10.10;2.13;;;19.80;98.90;;;;;;5013655;28;20022;-90
2022/02/23 12:56:29;;;;;;;7.45;2.17;;;19.60;96.90;;;;;;5013272;28;20641;-90
2022/02/23 12:59:00;;;;;;;5.00;1.55;;;19.20;97.10;;;;;;5013131;28;20072;-89
2022/02/23 13:01:31;;;;;;;9.70;2.45;;;18.80;97.50;;;;;;5012581;28;20492;-90
2022/02/23 13:04:00;;;;;;;9.13;2.38;;;18.30;98.30;;;;;;5012971;28;20033;-90
2022/02/23 13:06:28;;;;;;;9.65;2.60;;;18.50;97.80;;;;;;5013580;28;20053;-89
2022/02/23 13:08:54;;;;;;;9.85;2.22;;;18.60;97.90;;;;;;5015451;28;20033;-90
2022/02/23 13:11:33;;;;;;;7.70;2.15;;;19.10;98.10;;;;;;5012131;28;20121;-89
2022/02/23 13:14:01;;;;;;;6.65;2.05;;;19.60;96.30;;;;;;5014948;28;20032;-90
2022/02/23 13:16:28;;;;;;;7.43;2.05;;;19.60;97.00;;;;;;5013424;28;20451;-90
2022/02/23 13:19:06;;;;;;;9.07;2.05;;;19.60;97.40;;;;;;5015931;28;20022;-89